Main page
METAR-TAF:

METAR-TAF

Airports :

Baghdad, Iraq

Baghdad International Airport

latitude: 33-15-45N, longitude: 44-14-04E, elevation: 35 m

Current weather observation

The report was made 15 minutes ago, at 03:00 UTC
Wind 7 kt from the East
Temperature 15°C
Humidity 51%
Pressure 1018 hPa
Visibility 10 km or more
no clouds below 1500 m and no cumulonimbus

METAR: ORBI 190300Z 10007KT CAVOK 15/05 Q1018 NOSIG

Time: 06:15 (03:15 UTC)

Forecast

The report was made 4 hours and 15 minutes ago, at 23:00 UTC
Forecast valid from 19 at 00 UTC to 19 at 24 UTC
Wind 8 kt from the Southeast
Visibility: 4000 m
Scattered clouds at a height of 4000 ft
Broken clouds at a height of 10000 ft
widespread dust
Temporary
from 19 at 01 UTC to 19 at 08 UTC
Wind 16 kt from the South/Southeast
Visibility: 2000 m
Blowing dust

TAF: ORBI 182300Z 1900/1924 14008KT 4000 DU SCT040 BKN100 TEMPO 1901/1908 15016KT 2000 BLDU

Weather observations and forecasts of more than 4000 airports (METAR and TAF reports).

The available stations are represented by yellow and red dots on the map.

Hover mouse over dot to see the name of the station.

Then click to see weather observations and forecasts.

To change the map : click on the green buttons with a black cross to zoom in, on the green button with a dash to zoom out, or on the green arrows for adjacent maps.


METAR-TAF: